الصفحة الرئيسية
METAR-TAF:

METAR-TAF

مطار :

لشبونة, البرتغال

مطار لشبونة

دائرة عرض: 38-46N, خط طول: 009-08W, ارتفاع: 114 متر

مراقبة الطقس الحالي

تاريخ ووقت الإصدار 42 دقيقة قبل الساعة 08:00UTC
ريح 8 عقدة من الشمال الشرقي
درجة الحرارة 7°درجة مئوية
الرطوبة 57%
ضغط 1011 hPa
الرؤية 10 كم أو أكثر
الغيوم لا تقل 1500 م ولا وجود لمزنة ركامية السحاب الأسود

METAR: LPPT 220800Z 05008KT CAVOK 07/M01 Q1011

زمن: 08:42 (08:42 UTC)

توقعات

تاريخ ووقت الإصدار 3ساعات و 42 دقيقة قبل الساعة 05:00UTC
التوقعات صالحة من22 الساعة 06 UTC إلى 23 الساعة 12 UTC
ريح 8 عقدة من الشمال الشرقي
الرؤية 10 كم أو أكثر
الغيوم لا تقل 1500 م ولا وجود لمزنة ركامية السحاب الأسود
أصبح
من 22 الساعة 15 UTC إلى 22 الساعة 18 UTC
ريح 10 عقدة من الشمال/الشمال الغربي
أصبح
من 22 الساعة 21 UTC إلى 22 الساعة 23 UTC
ريح 3 عقدةمن اتجاهات متغيرة
أصبح
من 23 الساعة 06 UTC إلى 23 الساعة 09 UTC
ريح 8 عقدة من الشمال الشرقي

TAF: LPPT 220500Z 2206/2312 05008KT CAVOK BECMG 2215/2218 33010KT BECMG 2221/2223 VRB03KT BECMG 2306/2309 05008KT

أرصاد الطقس والتوقعات من أكثر من 4000 مطار (تقارير الطقس للمطار METAR والتنبؤ بالطقس بالمطارTAF).

المحطات المتاحة هي النقط الصفراء والحمراء على الخريطة.

حرك المؤشر فوق النقطة لمعرفة اسم المحطة.

ثم انقر لمعرفة أرصاد وتوقعات الطقس.

لتغيير الخارطة: اضغط على الأزرار الخضراء مع رمز الصليب الأسود للتكبير. على الزر الأخضر مع شرطة للتصغير، أو على الأسهم الخضراء للخرائط المجاورة.


METAR-TAF: